sensor_id;sensor_type;location;lat;lon;timestamp;temperature;humidity
9973;DHT22;5027;53.560;10.062;2022-09-09T00:01:58;19.60;99.90
9973;DHT22;5027;53.560;10.062;2022-09-09T00:04:29;19.60;99.90
9973;DHT22;5027;53.560;10.062;2022-09-09T00:07:05;19.60;99.90
9973;DHT22;5027;53.560;10.062;2022-09-09T00:09:45;19.60;99.90
9973;DHT22;5027;53.560;10.062;2022-09-09T00:15:00;19.50;99.90
9973;DHT22;5027;53.560;10.062;2022-09-09T00:17:53;19.60;99.90
9973;DHT22;5027;53.560;10.062;2022-09-09T00:23:12;19.60;99.90
9973;DHT22;5027;53.560;10.062;2022-09-09T00:25:44;19.60;99.90
9973;DHT22;5027;53.560;10.062;2022-09-09T00:28:24;19.60;99.90
9973;DHT22;5027;53.560;10.062;2022-09-09T00:30:52;19.60;99.90
9973;DHT22;5027;53.560;10.062;2022-09-09T00:33:24;19.60;99.90
9973;DHT22;5027;53.560;10.062;2022-09-09T00:35:54;19.60;99.90
9973;DHT22;5027;53.560;10.062;2022-09-09T00:38:36;19.60;99.90
9973;DHT22;5027;53.560;10.062;2022-09-09T00:41:57;19.60;99.90
9973;DHT22;5027;53.560;10.062;2022-09-09T00:44:34;19.60;99.90
9973;DHT22;5027;53.560;10.062;2022-09-09T00:49:54;19.60;99.90
9973;DHT22;5027;53.560;10.062;2022-09-09T00:57:50;19.60;99.90
9973;DHT22;5027;53.560;10.062;2022-09-09T01:00:22;19.50;99.90
9973;DHT22;5027;53.560;10.062;2022-09-09T01:03:11;19.50;99.90
9973;DHT22;5027;53.560;10.062;2022-09-09T01:11:09;19.50;99.90
9973;DHT22;5027;53.560;10.062;2022-09-09T01:13:37;19.50;99.90
9973;DHT22;5027;53.560;10.062;2022-09-09T01:16:10;19.40;99.90
9973;DHT22;5027;53.560;10.062;2022-09-09T01:18:47;19.40;99.90
9973;DHT22;5027;53.560;10.062;2022-09-09T01:21:46;19.50;99.90
9973;DHT22;5027;53.560;10.062;2022-09-09T01:24:22;19.50;99.90
9973;DHT22;5027;53.560;10.062;2022-09-09T01:27:05;19.50;99.90
9973;DHT22;5027;53.560;10.062;2022-09-09T01:29:33;19.40;99.90
9973;DHT22;5027;53.560;10.062;2022-09-09T01:32:03;19.40;99.90
9973;DHT22;5027;53.560;10.062;2022-09-09T01:34:50;19.40;99.90
9973;DHT22;5027;53.560;10.062;2022-09-09T01:37:18;19.40;99.90
9973;DHT22;5027;53.560;10.062;2022-09-09T01:39:45;19.40;99.90
9973;DHT22;5027;53.560;10.062;2022-09-09T01:42:16;19.40;99.90
9973;DHT22;5027;53.560;10.062;2022-09-09T01:44:44;19.40;99.90
9973;DHT22;5027;53.560;10.062;2022-09-09T01:47:11;19.40;99.90
9973;DHT22;5027;53.560;10.062;2022-09-09T01:49:57;19.40;99.90
9973;DHT22;5027;53.560;10.062;2022-09-09T01:52:26;19.40;99.90
9973;DHT22;5027;53.560;10.062;2022-09-09T01:54:53;19.40;99.90
9973;DHT22;5027;53.560;10.062;2022-09-09T01:57:34;19.40;99.90
9973;DHT22;5027;53.560;10.062;2022-09-09T02:00:09;19.40;99.90
9973;DHT22;5027;53.560;10.062;2022-09-09T02:08:48;19.40;99.90
9973;DHT22;5027;53.560;10.062;2022-09-09T02:11:22;19.40;99.90
9973;DHT22;5027;53.560;10.062;2022-09-09T02:14:17;19.40;99.90
9973;DHT22;5027;53.560;10.062;2022-09-09T02:16:52;19.40;99.90
9973;DHT22;5027;53.560;10.062;2022-09-09T02:19:32;19.30;99.90
9973;DHT22;5027;53.560;10.062;2022-09-09T02:22:06;19.30;99.90
9973;DHT22;5027;53.560;10.062;2022-09-09T02:24:36;19.40;99.90
9973;DHT22;5027;53.560;10.062;2022-09-09T02:27:14;19.30;99.90
9973;DHT22;5027;53.560;10.062;2022-09-09T02:29:46;19.30;99.90
9973;DHT22;5027;53.560;10.062;2022-09-09T02:32:21;19.20;99.90
9973;DHT22;5027;53.560;10.062;2022-09-09T02:35:02;19.20;99.90
9973;DHT22;5027;53.560;10.062;2022-09-09T02:37:37;19.20;99.90
9973;DHT22;5027;53.560;10.062;2022-09-09T02:40:06;19.20;99.90
9973;DHT22;5027;53.560;10.062;2022-09-09T02:42:44;19.20;99.90
9973;DHT22;5027;53.560;10.062;2022-09-09T02:45:18;19.20;99.90
9973;DHT22;5027;53.560;10.062;2022-09-09T02:48:03;19.30;99.90
9973;DHT22;5027;53.560;10.062;2022-09-09T02:50:40;19.30;99.90
9973;DHT22;5027;53.560;10.062;2022-09-09T02:53:19;19.30;99.90
9973;DHT22;5027;53.560;10.062;2022-09-09T02:55:51;19.30;99.90
9973;DHT22;5027;53.560;10.062;2022-09-09T02:58:22;19.30;99.90
9973;DHT22;5027;53.560;10.062;2022-09-09T03:00:57;19.30;99.90
9973;DHT22;5027;53.560;10.062;2022-09-09T03:03:25;19.30;99.90
9973;DHT22;5027;53.560;10.062;2022-09-09T03:05:52;19.20;99.90
9973;DHT22;5027;53.560;10.062;2022-09-09T03:08:19;19.30;99.90
9973;DHT22;5027;53.560;10.062;2022-09-09T03:10:46;19.30;99.90
9973;DHT22;5027;53.560;10.062;2022-09-09T03:13:14;19.20;99.90
9973;DHT22;5027;53.560;10.062;2022-09-09T03:15:42;19.20;99.90
9973;DHT22;5027;53.560;10.062;2022-09-09T03:18:14;19.20;99.90
9973;DHT22;5027;53.560;10.062;2022-09-09T03:20:42;19.20;99.90
9973;DHT22;5027;53.560;10.062;2022-09-09T03:23:09;19.20;99.90
9973;DHT22;5027;53.560;10.062;2022-09-09T03:25:51;19.20;99.90
9973;DHT22;5027;53.560;10.062;2022-09-09T03:28:25;19.20;99.90
9973;DHT22;5027;53.560;10.062;2022-09-09T03:31:00;19.20;99.90
9973;DHT22;5027;53.560;10.062;2022-09-09T03:33:29;19.20;99.90
9973;DHT22;5027;53.560;10.062;2022-09-09T03:35:57;19.20;99.90
9973;DHT22;5027;53.560;10.062;2022-09-09T03:38:24;19.20;99.90
9973;DHT22;5027;53.560;10.062;2022-09-09T03:40:54;19.20;99.90
9973;DHT22;5027;53.560;10.062;2022-09-09T03:43:23;19.20;99.90
9973;DHT22;5027;53.560;10.062;2022-09-09T03:45:52;19.20;99.90
9973;DHT22;5027;53.560;10.062;2022-09-09T03:48:19;19.10;99.90
9973;DHT22;5027;53.560;10.062;2022-09-09T03:50:47;19.10;99.90
9973;DHT22;5027;53.560;10.062;2022-09-09T03:53:16;19.10;99.90
9973;DHT22;5027;53.560;10.062;2022-09-09T03:55:47;19.10;99.90
9973;DHT22;5027;53.560;10.062;2022-09-09T03:58:15;19.10;99.90
9973;DHT22;5027;53.560;10.062;2022-09-09T04:01:00;19.00;99.90
9973;DHT22;5027;53.560;10.062;2022-09-09T04:03:27;19.10;99.90
9973;DHT22;5027;53.560;10.062;2022-09-09T04:05:56;19.10;99.90
9973;DHT22;5027;53.560;10.062;2022-09-09T04:08:25;19.10;99.90
9973;DHT22;5027;53.560;10.062;2022-09-09T04:10:53;19.10;99.90
9973;DHT22;5027;53.560;10.062;2022-09-09T04:13:25;19.10;99.90
9973;DHT22;5027;53.560;10.062;2022-09-09T04:15:57;19.10;99.90
9973;DHT22;5027;53.560;10.062;2022-09-09T04:18:25;19.10;99.90
9973;DHT22;5027;53.560;10.062;2022-09-09T04:20:53;19.10;99.90
9973;DHT22;5027;53.560;10.062;2022-09-09T04:23:24;19.10;99.90
9973;DHT22;5027;53.560;10.062;2022-09-09T04:25:53;19.00;99.90
9973;DHT22;5027;53.560;10.062;2022-09-09T04:28:22;19.00;99.90
9973;DHT22;5027;53.560;10.062;2022-09-09T04:30:49;19.10;99.90
9973;DHT22;5027;53.560;10.062;2022-09-09T04:33:16;19.00;99.90
9973;DHT22;5027;53.560;10.062;2022-09-09T04:35:49;19.00;99.90
9973;DHT22;5027;53.560;10.062;2022-09-09T04:38:18;19.00;99.90
9973;DHT22;5027;53.560;10.062;2022-09-09T04:40:49;19.00;99.90
9973;DHT22;5027;53.560;10.062;2022-09-09T04:43:18;19.00;99.90
9973;DHT22;5027;53.560;10.062;2022-09-09T04:45:50;19.00;99.90
9973;DHT22;5027;53.560;10.062;2022-09-09T04:48:20;19.00;99.90
9973;DHT22;5027;53.560;10.062;2022-09-09T04:50:56;19.00;99.90
9973;DHT22;5027;53.560;10.062;2022-09-09T04:53:23;19.10;99.90
9973;DHT22;5027;53.560;10.062;2022-09-09T04:55:50;19.10;99.90
9973;DHT22;5027;53.560;10.062;2022-09-09T04:58:17;19.10;99.90
9973;DHT22;5027;53.560;10.062;2022-09-09T05:00:44;19.10;99.90
9973;DHT22;5027;53.560;10.062;2022-09-09T05:03:11;19.10;99.90
9973;DHT22;5027;53.560;10.062;2022-09-09T05:05:39;19.10;99.90
9973;DHT22;5027;53.560;10.062;2022-09-09T05:08:07;19.10;99.90
9973;DHT22;5027;53.560;10.062;2022-09-09T05:10:38;19.10;99.90
9973;DHT22;5027;53.560;10.062;2022-09-09T05:13:05;19.00;99.90
9973;DHT22;5027;53.560;10.062;2022-09-09T05:15:33;19.00;99.90
9973;DHT22;5027;53.560;10.062;2022-09-09T05:18:01;19.00;99.90
9973;DHT22;5027;53.560;10.062;2022-09-09T05:20:30;19.00;99.90
9973;DHT22;5027;53.560;10.062;2022-09-09T05:22:58;19.10;99.90
9973;DHT22;5027;53.560;10.062;2022-09-09T05:25:28;19.10;99.90
9973;DHT22;5027;53.560;10.062;2022-09-09T05:27:55;19.10;99.90
9973;DHT22;5027;53.560;10.062;2022-09-09T05:30:22;19.10;99.90
9973;DHT22;5027;53.560;10.062;2022-09-09T05:32:53;19.10;99.90
9973;DHT22;5027;53.560;10.062;2022-09-09T05:35:22;19.10;99.90
9973;DHT22;5027;53.560;10.062;2022-09-09T05:37:49;19.10;99.90
9973;DHT22;5027;53.560;10.062;2022-09-09T05:40:16;19.10;99.90
9973;DHT22;5027;53.560;10.062;2022-09-09T05:42:43;19.10;99.90
9973;DHT22;5027;53.560;10.062;2022-09-09T05:45:10;19.10;99.90
9973;DHT22;5027;53.560;10.062;2022-09-09T05:47:38;19.10;99.90
9973;DHT22;5027;53.560;10.062;2022-09-09T05:50:07;19.10;99.90
9973;DHT22;5027;53.560;10.062;2022-09-09T05:52:34;19.10;99.90
9973;DHT22;5027;53.560;10.062;2022-09-09T05:55:05;19.10;99.90
9973;DHT22;5027;53.560;10.062;2022-09-09T05:57:32;19.10;99.90
9973;DHT22;5027;53.560;10.062;2022-09-09T05:59:58;19.10;99.90
9973;DHT22;5027;53.560;10.062;2022-09-09T06:02:25;19.10;99.90
9973;DHT22;5027;53.560;10.062;2022-09-09T06:04:52;19.10;99.90
9973;DHT22;5027;53.560;10.062;2022-09-09T06:07:25;19.10;99.90
9973;DHT22;5027;53.560;10.062;2022-09-09T06:09:52;19.10;99.90
9973;DHT22;5027;53.560;10.062;2022-09-09T06:12:19;19.20;99.90
9973;DHT22;5027;53.560;10.062;2022-09-09T06:14:47;19.20;99.90
9973;DHT22;5027;53.560;10.062;2022-09-09T06:17:14;19.20;99.90
9973;DHT22;5027;53.560;10.062;2022-09-09T06:19:41;19.20;99.90
9973;DHT22;5027;53.560;10.062;2022-09-09T06:22:07;19.20;99.90
9973;DHT22;5027;53.560;10.062;2022-09-09T06:24:36;19.20;99.90
9973;DHT22;5027;53.560;10.062;2022-09-09T06:27:03;19.20;99.90
9973;DHT22;5027;53.560;10.062;2022-09-09T06:29:33;18.90;99.90
9973;DHT22;5027;53.560;10.062;2022-09-09T06:32:01;18.70;99.90
9973;DHT22;5027;53.560;10.062;2022-09-09T06:34:29;18.80;99.90
9973;DHT22;5027;53.560;10.062;2022-09-09T06:36:57;18.90;99.90
9973;DHT22;5027;53.560;10.062;2022-09-09T06:39:28;18.80;99.90
9973;DHT22;5027;53.560;10.062;2022-09-09T06:41:55;19.00;99.90
9973;DHT22;5027;53.560;10.062;2022-09-09T06:44:40;19.00;99.90
9973;DHT22;5027;53.560;10.062;2022-09-09T06:47:12;18.90;99.90
9973;DHT22;5027;53.560;10.062;2022-09-09T06:49:40;18.90;99.90
9973;DHT22;5027;53.560;10.062;2022-09-09T06:52:13;19.00;99.90
9973;DHT22;5027;53.560;10.062;2022-09-09T06:54:40;19.10;99.90
9973;DHT22;5027;53.560;10.062;2022-09-09T06:57:07;19.10;99.90
9973;DHT22;5027;53.560;10.062;2022-09-09T06:59:55;19.20;99.90
9973;DHT22;5027;53.560;10.062;2022-09-09T07:02:22;19.20;99.90
9973;DHT22;5027;53.560;10.062;2022-09-09T07:04:48;19.30;99.90
9973;DHT22;5027;53.560;10.062;2022-09-09T07:07:17;19.30;99.90
9973;DHT22;5027;53.560;10.062;2022-09-09T07:09:44;19.20;99.90
9973;DHT22;5027;53.560;10.062;2022-09-09T07:12:12;19.20;99.90
9973;DHT22;5027;53.560;10.062;2022-09-09T07:14:45;19.10;99.90
9973;DHT22;5027;53.560;10.062;2022-09-09T07:17:12;19.20;99.90
9973;DHT22;5027;53.560;10.062;2022-09-09T07:19:39;19.20;99.90
9973;DHT22;5027;53.560;10.062;2022-09-09T07:22:06;19.20;99.90
9973;DHT22;5027;53.560;10.062;2022-09-09T07:24:34;19.00;99.90
9973;DHT22;5027;53.560;10.062;2022-09-09T07:27:00;19.00;99.90
9973;DHT22;5027;53.560;10.062;2022-09-09T07:29:28;19.00;99.90
9973;DHT22;5027;53.560;10.062;2022-09-09T07:31:56;19.00;99.90
9973;DHT22;5027;53.560;10.062;2022-09-09T07:34:28;19.10;99.90
9973;DHT22;5027;53.560;10.062;2022-09-09T07:36:56;19.10;99.90
9973;DHT22;5027;53.560;10.062;2022-09-09T07:39:24;19.10;99.90
9973;DHT22;5027;53.560;10.062;2022-09-09T07:41:53;19.10;99.90
9973;DHT22;5027;53.560;10.062;2022-09-09T07:44:23;19.00;99.90
9973;DHT22;5027;53.560;10.062;2022-09-09T07:47:06;19.10;99.90
9973;DHT22;5027;53.560;10.062;2022-09-09T07:49:38;19.20;99.90
9973;DHT22;5027;53.560;10.062;2022-09-09T07:52:06;19.30;99.90
9973;DHT22;5027;53.560;10.062;2022-09-09T07:54:40;19.30;99.90
9973;DHT22;5027;53.560;10.062;2022-09-09T07:57:09;19.20;99.90
9973;DHT22;5027;53.560;10.062;2022-09-09T07:59:37;19.10;99.90
9973;DHT22;5027;53.560;10.062;2022-09-09T08:02:04;19.10;99.90
9973;DHT22;5027;53.560;10.062;2022-09-09T08:04:33;19.10;99.90
9973;DHT22;5027;53.560;10.062;2022-09-09T08:07:01;19.20;99.90
9973;DHT22;5027;53.560;10.062;2022-09-09T08:09:33;19.30;99.90
9973;DHT22;5027;53.560;10.062;2022-09-09T08:12:06;19.30;99.90
9973;DHT22;5027;53.560;10.062;2022-09-09T08:14:35;19.30;99.90
9973;DHT22;5027;53.560;10.062;2022-09-09T08:17:02;19.40;99.90
9973;DHT22;5027;53.560;10.062;2022-09-09T08:19:31;19.30;99.90
9973;DHT22;5027;53.560;10.062;2022-09-09T08:22:00;19.40;99.90
9973;DHT22;5027;53.560;10.062;2022-09-09T08:24:29;19.40;99.90
9973;DHT22;5027;53.560;10.062;2022-09-09T08:26:56;19.50;99.90
9973;DHT22;5027;53.560;10.062;2022-09-09T08:29:23;19.60;99.90
9973;DHT22;5027;53.560;10.062;2022-09-09T08:31:53;19.60;99.90
9973;DHT22;5027;53.560;10.062;2022-09-09T08:34:21;19.50;99.90
9973;DHT22;5027;53.560;10.062;2022-09-09T08:36:50;19.30;99.90
9973;DHT22;5027;53.560;10.062;2022-09-09T08:39:22;19.40;99.90
9973;DHT22;5027;53.560;10.062;2022-09-09T08:44:47;19.60;99.90
9973;DHT22;5027;53.560;10.062;2022-09-09T08:47:52;19.50;99.90
9973;DHT22;5027;53.560;10.062;2022-09-09T08:50:26;19.60;99.90
9973;DHT22;5027;53.560;10.062;2022-09-09T08:53:16;19.60;99.90
9973;DHT22;5027;53.560;10.062;2022-09-09T08:55:54;19.70;99.90
9973;DHT22;5027;53.560;10.062;2022-09-09T08:58:50;19.70;99.90
9973;DHT22;5027;53.560;10.062;2022-09-09T09:09:06;19.60;99.90
9973;DHT22;5027;53.560;10.062;2022-09-09T09:11:39;19.60;99.90
9973;DHT22;5027;53.560;10.062;2022-09-09T09:14:20;19.70;99.90
9973;DHT22;5027;53.560;10.062;2022-09-09T09:17:02;19.80;99.90
9973;DHT22;5027;53.560;10.062;2022-09-09T09:19:32;19.80;99.90
9973;DHT22;5027;53.560;10.062;2022-09-09T09:25:37;19.80;99.90
9973;DHT22;5027;53.560;10.062;2022-09-09T09:27:58;19.80;99.90
9973;DHT22;5027;53.560;10.062;2022-09-09T09:30:39;19.90;99.90
9973;DHT22;5027;53.560;10.062;2022-09-09T09:33:20;19.90;99.90
9973;DHT22;5027;53.560;10.062;2022-09-09T09:35:50;20.00;99.90
9973;DHT22;5027;53.560;10.062;2022-09-09T09:38:23;19.90;99.90
9973;DHT22;5027;53.560;10.062;2022-09-09T09:41:11;19.90;99.90
9973;DHT22;5027;53.560;10.062;2022-09-09T09:43:40;20.00;99.90
9973;DHT22;5027;53.560;10.062;2022-09-09T09:46:21;20.00;99.90
9973;DHT22;5027;53.560;10.062;2022-09-09T09:49:16;20.00;99.90
9973;DHT22;5027;53.560;10.062;2022-09-09T09:51:44;20.10;99.90
9973;DHT22;5027;53.560;10.062;2022-09-09T09:54:18;19.90;99.90
9973;DHT22;5027;53.560;10.062;2022-09-09T09:56:53;20.00;99.90
9973;DHT22;5027;53.560;10.062;2022-09-09T10:02:24;20.30;99.90
9973;DHT22;5027;53.560;10.062;2022-09-09T10:05:03;20.40;99.90
9973;DHT22;5027;53.560;10.062;2022-09-09T10:07:32;20.50;99.90
9973;DHT22;5027;53.560;10.062;2022-09-09T10:09:59;20.40;99.90
9973;DHT22;5027;53.560;10.062;2022-09-09T10:15:44;20.60;99.90
9973;DHT22;5027;53.560;10.062;2022-09-09T10:18:42;20.70;99.90
9973;DHT22;5027;53.560;10.062;2022-09-09T10:21:40;20.70;99.90
9973;DHT22;5027;53.560;10.062;2022-09-09T10:32:40;21.00;99.90
9973;DHT22;5027;53.560;10.062;2022-09-09T10:35:33;21.00;99.90
9973;DHT22;5027;53.560;10.062;2022-09-09T10:38:17;21.10;99.90
9973;DHT22;5027;53.560;10.062;2022-09-09T10:46:10;20.90;99.90
9973;DHT22;5027;53.560;10.062;2022-09-09T10:51:39;21.10;99.90
9973;DHT22;5027;53.560;10.062;2022-09-09T10:56:55;21.10;99.90
9973;DHT22;5027;53.560;10.062;2022-09-09T10:59:30;21.10;99.90
9973;DHT22;5027;53.560;10.062;2022-09-09T11:02:05;21.10;99.90
9973;DHT22;5027;53.560;10.062;2022-09-09T11:08:10;21.10;99.90
9973;DHT22;5027;53.560;10.062;2022-09-09T11:10:40;21.00;99.90
9973;DHT22;5027;53.560;10.062;2022-09-09T11:13:20;21.00;99.90
9973;DHT22;5027;53.560;10.062;2022-09-09T11:15:53;21.00;99.90
9973;DHT22;5027;53.560;10.062;2022-09-09T11:18:22;21.00;99.90
9973;DHT22;5027;53.560;10.062;2022-09-09T11:20:54;21.10;99.90
9973;DHT22;5027;53.560;10.062;2022-09-09T11:23:27;21.10;99.90
9973;DHT22;5027;53.560;10.062;2022-09-09T11:26:00;21.10;99.90
9973;DHT22;5027;53.560;10.062;2022-09-09T11:31:21;21.10;99.90
9973;DHT22;5027;53.560;10.062;2022-09-09T11:33:58;21.00;99.90
9973;DHT22;5027;53.560;10.062;2022-09-09T11:42:19;21.10;99.90
9973;DHT22;5027;53.560;10.062;2022-09-09T11:44:46;21.10;99.90
9973;DHT22;5027;53.560;10.062;2022-09-09T11:47:28;21.20;99.90
9973;DHT22;5027;53.560;10.062;2022-09-09T11:50:28;21.10;99.90
9973;DHT22;5027;53.560;10.062;2022-09-09T11:53:26;21.20;99.90
9973;DHT22;5027;53.560;10.062;2022-09-09T11:56:13;21.10;99.90
9973;DHT22;5027;53.560;10.062;2022-09-09T11:58:44;21.20;99.90
9973;DHT22;5027;53.560;10.062;2022-09-09T12:01:37;21.20;99.90
9973;DHT22;5027;53.560;10.062;2022-09-09T12:04:14;21.20;99.90
9973;DHT22;5027;53.560;10.062;2022-09-09T12:06:53;21.40;99.90
9973;DHT22;5027;53.560;10.062;2022-09-09T12:09:29;21.40;99.90
9973;DHT22;5027;53.560;10.062;2022-09-09T12:14:43;21.30;99.90
9973;DHT22;5027;53.560;10.062;2022-09-09T12:17:20;21.30;99.90
9973;DHT22;5027;53.560;10.062;2022-09-09T12:20:11;21.30;99.90
9973;DHT22;5027;53.560;10.062;2022-09-09T12:22:52;21.20;99.90
9973;DHT22;5027;53.560;10.062;2022-09-09T12:25:44;21.20;99.90
9973;DHT22;5027;53.560;10.062;2022-09-09T12:33:52;21.10;99.90
9973;DHT22;5027;53.560;10.062;2022-09-09T12:36:28;21.30;99.90
9973;DHT22;5027;53.560;10.062;2022-09-09T12:38:55;21.20;99.90
9973;DHT22;5027;53.560;10.062;2022-09-09T12:41:27;21.30;99.90
9973;DHT22;5027;53.560;10.062;2022-09-09T12:44:09;21.40;99.90
9973;DHT22;5027;53.560;10.062;2022-09-09T12:46:39;21.50;99.90
9973;DHT22;5027;53.560;10.062;2022-09-09T12:49:30;21.50;99.90
9973;DHT22;5027;53.560;10.062;2022-09-09T12:52:02;21.50;99.90
9973;DHT22;5027;53.560;10.062;2022-09-09T12:54:35;21.40;99.90
9973;DHT22;5027;53.560;10.062;2022-09-09T12:57:03;21.40;99.90
9973;DHT22;5027;53.560;10.062;2022-09-09T12:59:40;21.40;99.90
9973;DHT22;5027;53.560;10.062;2022-09-09T13:02:22;21.40;99.90
9973;DHT22;5027;53.560;10.062;2022-09-09T13:04:50;21.30;99.90
9973;DHT22;5027;53.560;10.062;2022-09-09T13:07:18;21.30;99.90
9973;DHT22;5027;53.560;10.062;2022-09-09T13:09:46;21.30;99.90
9973;DHT22;5027;53.560;10.062;2022-09-09T13:12:16;21.20;99.90
9973;DHT22;5027;53.560;10.062;2022-09-09T13:14:47;21.20;99.90
9973;DHT22;5027;53.560;10.062;2022-09-09T13:17:19;21.20;99.90
9973;DHT22;5027;53.560;10.062;2022-09-09T13:19:46;21.20;99.90
9973;DHT22;5027;53.560;10.062;2022-09-09T13:22:20;21.20;99.90
9973;DHT22;5027;53.560;10.062;2022-09-09T13:24:46;21.10;99.90
9973;DHT22;5027;53.560;10.062;2022-09-09T13:27:24;21.10;99.90
9973;DHT22;5027;53.560;10.062;2022-09-09T13:29:54;21.10;99.90
9973;DHT22;5027;53.560;10.062;2022-09-09T13:32:23;21.10;99.90
9973;DHT22;5027;53.560;10.062;2022-09-09T13:34:58;21.00;99.90
9973;DHT22;5027;53.560;10.062;2022-09-09T13:37:37;21.00;99.90
9973;DHT22;5027;53.560;10.062;2022-09-09T13:40:05;21.00;99.90
9973;DHT22;5027;53.560;10.062;2022-09-09T13:42:35;21.00;99.90
9973;DHT22;5027;53.560;10.062;2022-09-09T13:45:04;20.90;99.90
9973;DHT22;5027;53.560;10.062;2022-09-09T13:47:35;20.90;99.90
9973;DHT22;5027;53.560;10.062;2022-09-09T13:50:23;20.90;99.90
9973;DHT22;5027;53.560;10.062;2022-09-09T13:52:59;20.80;99.90
9973;DHT22;5027;53.560;10.062;2022-09-09T13:55:29;20.80;99.90
9973;DHT22;5027;53.560;10.062;2022-09-09T13:58:00;20.80;99.90
9973;DHT22;5027;53.560;10.062;2022-09-09T14:00:32;20.80;99.90
9973;DHT22;5027;53.560;10.062;2022-09-09T14:02:59;20.80;99.90
9973;DHT22;5027;53.560;10.062;2022-09-09T14:05:31;20.90;99.90
9973;DHT22;5027;53.560;10.062;2022-09-09T14:07:59;20.90;99.90
9973;DHT22;5027;53.560;10.062;2022-09-09T14:10:27;20.90;99.90
9973;DHT22;5027;53.560;10.062;2022-09-09T14:12:53;20.90;99.90
9973;DHT22;5027;53.560;10.062;2022-09-09T14:15:20;20.90;99.90
9973;DHT22;5027;53.560;10.062;2022-09-09T14:17:48;20.90;99.90
9973;DHT22;5027;53.560;10.062;2022-09-09T14:20:15;20.80;99.90
9973;DHT22;5027;53.560;10.062;2022-09-09T14:22:43;20.90;99.90
9973;DHT22;5027;53.560;10.062;2022-09-09T14:25:10;20.90;99.90
9973;DHT22;5027;53.560;10.062;2022-09-09T14:27:40;20.90;99.90
9973;DHT22;5027;53.560;10.062;2022-09-09T14:30:07;20.80;99.90
9973;DHT22;5027;53.560;10.062;2022-09-09T14:32:34;20.70;99.90
9973;DHT22;5027;53.560;10.062;2022-09-09T14:35:00;20.70;99.90
9973;DHT22;5027;53.560;10.062;2022-09-09T14:37:27;20.60;99.90
9973;DHT22;5027;53.560;10.062;2022-09-09T14:39:54;20.60;99.90
9973;DHT22;5027;53.560;10.062;2022-09-09T14:42:22;20.60;99.90
9973;DHT22;5027;53.560;10.062;2022-09-09T14:44:49;20.60;99.90
9973;DHT22;5027;53.560;10.062;2022-09-09T14:47:16;20.70;99.90
9973;DHT22;5027;53.560;10.062;2022-09-09T14:49:43;20.70;99.90
9973;DHT22;5027;53.560;10.062;2022-09-09T14:52:12;20.80;99.90
9973;DHT22;5027;53.560;10.062;2022-09-09T14:54:39;20.80;99.90
9973;DHT22;5027;53.560;10.062;2022-09-09T14:57:06;20.80;99.90
9973;DHT22;5027;53.560;10.062;2022-09-09T14:59:33;20.80;99.90
9973;DHT22;5027;53.560;10.062;2022-09-09T15:02:00;20.70;99.90
9973;DHT22;5027;53.560;10.062;2022-09-09T15:04:30;20.70;99.90
9973;DHT22;5027;53.560;10.062;2022-09-09T15:06:57;20.70;99.90
9973;DHT22;5027;53.560;10.062;2022-09-09T15:09:25;20.70;99.90
9973;DHT22;5027;53.560;10.062;2022-09-09T15:11:51;20.70;99.90
9973;DHT22;5027;53.560;10.062;2022-09-09T15:14:19;20.70;99.90
9973;DHT22;5027;53.560;10.062;2022-09-09T15:16:51;20.60;99.90
9973;DHT22;5027;53.560;10.062;2022-09-09T15:19:17;20.70;99.90
9973;DHT22;5027;53.560;10.062;2022-09-09T15:21:44;20.60;99.90
9973;DHT22;5027;53.560;10.062;2022-09-09T15:24:11;20.70;99.90
9973;DHT22;5027;53.560;10.062;2022-09-09T15:26:39;20.60;99.90
9973;DHT22;5027;53.560;10.062;2022-09-09T15:29:06;20.60;99.90
9973;DHT22;5027;53.560;10.062;2022-09-09T15:31:35;20.60;99.90
9973;DHT22;5027;53.560;10.062;2022-09-09T15:34:06;20.60;99.90
9973;DHT22;5027;53.560;10.062;2022-09-09T15:36:36;20.60;99.90
9973;DHT22;5027;53.560;10.062;2022-09-09T15:39:05;20.60;99.90
9973;DHT22;5027;53.560;10.062;2022-09-09T15:41:33;20.60;99.90
9973;DHT22;5027;53.560;10.062;2022-09-09T15:44:00;20.60;99.90
9973;DHT22;5027;53.560;10.062;2022-09-09T15:49:04;20.70;99.90
9973;DHT22;5027;53.560;10.062;2022-09-09T15:51:31;20.70;99.90
9973;DHT22;5027;53.560;10.062;2022-09-09T15:54:18;20.60;99.90
9973;DHT22;5027;53.560;10.062;2022-09-09T15:56:47;20.60;99.90
9973;DHT22;5027;53.560;10.062;2022-09-09T15:59:16;20.70;99.90
9973;DHT22;5027;53.560;10.062;2022-09-09T16:01:43;20.80;99.90
9973;DHT22;5027;53.560;10.062;2022-09-09T16:04:10;20.70;99.90
9973;DHT22;5027;53.560;10.062;2022-09-09T16:06:37;20.70;99.90
9973;DHT22;5027;53.560;10.062;2022-09-09T16:09:05;20.60;99.90
9973;DHT22;5027;53.560;10.062;2022-09-09T16:11:37;20.60;99.90
9973;DHT22;5027;53.560;10.062;2022-09-09T16:14:05;20.60;99.90
9973;DHT22;5027;53.560;10.062;2022-09-09T16:16:33;20.60;99.90
9973;DHT22;5027;53.560;10.062;2022-09-09T16:19:10;20.60;99.90
9973;DHT22;5027;53.560;10.062;2022-09-09T16:21:46;20.60;99.90
9973;DHT22;5027;53.560;10.062;2022-09-09T16:24:15;20.60;99.90
9973;DHT22;5027;53.560;10.062;2022-09-09T16:26:45;20.70;99.90
9973;DHT22;5027;53.560;10.062;2022-09-09T16:29:13;20.60;99.90
9973;DHT22;5027;53.560;10.062;2022-09-09T16:31:41;20.60;99.90
9973;DHT22;5027;53.560;10.062;2022-09-09T16:34:08;20.60;99.90
9973;DHT22;5027;53.560;10.062;2022-09-09T16:36:37;20.60;99.90
9973;DHT22;5027;53.560;10.062;2022-09-09T16:39:08;20.60;99.90
9973;DHT22;5027;53.560;10.062;2022-09-09T16:41:36;20.60;99.90
9973;DHT22;5027;53.560;10.062;2022-09-09T16:44:05;20.70;99.90
9973;DHT22;5027;53.560;10.062;2022-09-09T16:46:34;20.70;99.90
9973;DHT22;5027;53.560;10.062;2022-09-09T16:49:03;20.70;99.90
9973;DHT22;5027;53.560;10.062;2022-09-09T16:51:37;20.60;99.90
9973;DHT22;5027;53.560;10.062;2022-09-09T16:54:05;20.70;99.90
9973;DHT22;5027;53.560;10.062;2022-09-09T16:56:36;20.60;99.90
9973;DHT22;5027;53.560;10.062;2022-09-09T16:59:13;20.60;99.90
9973;DHT22;5027;53.560;10.062;2022-09-09T17:01:42;20.60;99.90
9973;DHT22;5027;53.560;10.062;2022-09-09T17:04:15;20.60;99.90
9973;DHT22;5027;53.560;10.062;2022-09-09T17:06:48;20.60;99.90
9973;DHT22;5027;53.560;10.062;2022-09-09T17:09:19;20.60;99.90
9973;DHT22;5027;53.560;10.062;2022-09-09T17:11:45;20.60;99.90
9973;DHT22;5027;53.560;10.062;2022-09-09T17:14:16;20.60;99.90
9973;DHT22;5027;53.560;10.062;2022-09-09T17:16:43;20.60;99.90
9973;DHT22;5027;53.560;10.062;2022-09-09T17:19:10;20.60;99.90
9973;DHT22;5027;53.560;10.062;2022-09-09T17:21:37;20.60;99.90
9973;DHT22;5027;53.560;10.062;2022-09-09T17:24:24;20.60;99.90
9973;DHT22;5027;53.560;10.062;2022-09-09T17:26:52;20.60;99.90
9973;DHT22;5027;53.560;10.062;2022-09-09T17:29:18;20.60;99.90
9973;DHT22;5027;53.560;10.062;2022-09-09T17:31:45;20.60;99.90
9973;DHT22;5027;53.560;10.062;2022-09-09T17:34:12;20.60;99.90
9973;DHT22;5027;53.560;10.062;2022-09-09T17:36:39;20.50;99.90
9973;DHT22;5027;53.560;10.062;2022-09-09T17:39:06;20.50;99.90
9973;DHT22;5027;53.560;10.062;2022-09-09T17:41:38;20.50;99.90
9973;DHT22;5027;53.560;10.062;2022-09-09T17:44:06;20.50;99.90